sim
Sign-in with your pilot id or email,
or register
Callsign
Passwort

Schedule Details

Flight Number: OEO8925
Departure: Luxembourg Findel Airport (ELLX) at 10:00
Arrival: Munich Airport (EDDM) at 11:15

Weather Information
Getting current METAR information for ELLX 181220Z 07011KT 040V110 CAVOK 25/11 Q1021 NOSIG
Getting current METAR information for EDDM 181220Z 09012KT 040V120 CAVOK 19/09 Q1024 NOSIG

Schedule Frequency

Route Map